Chicago, IL (60634)

2:34 AM CST on December 07, 2016 (GMT -0600)
Dunning | | Change Station

Elev 656 ft 41.94 °N, 87.82 °W | Updated 13 seconds ago

Scattered Clouds
Scattered Clouds
26.1 °F
Feels Like 20 °F
N
5.0
Wind Variable Wind from West

Today
High -- | Low -- °F
--% Chance of Precip.
Yesterday
High -- | Low -- °F
Precip. -- in
Pressure 30.02 in
Visibility 10.0 miles
Clouds Scattered Clouds 25000 ft
Windchill 20 °F
Dew Point 19 °F
Humidity 75%
Rainfall 0.00 in
Snow Depth Not available.
7:05 AM 4:19 PM
Waxing Crescent, 50% visible
METAR KORD 070751Z 26013KT 10SM SCT250 M03/M08 A3000 RMK AO2 SLP165 T10331078
Pressure 30.02 in
Visibility 10.0 miles
Clouds Scattered Clouds 25000 ft
Windchill 20 °F
Dew Point 19 °F
Humidity 75%
Rainfall 0.00 in
Snow Depth Not available.
7:05 AM 4:19 PM
Waxing Crescent, 50% visible
METAR KORD 070751Z 26013KT 10SM SCT250 M03/M08 A3000 RMK AO2 SLP165 T10331078

10-Day Weather Forecast

Almanac

Astronomy

Dec. 07, 2016 Rise Set
Actual Time
Civil Twilight
Nautical Twilight
Astronomical Twilight
Moon
Length of Visible Light
Length of Day
Tomorrow will be .
, % of the Moon is Illuminated

Today's Extremes

State Highs State Lows

Community

WunderPhotos

Upload Photos

1,956,104 photos uploaded!

WunderBlog® & News

Nearby

Air Quality

  Air Quality AQ Index Pollutant
Not available.

Snow Depth

Station Depth Elevation

Earthquake Activity

City Distance Mag. Time & Date
Minimum magnitude displayed is 2.5.

Coastal Water Temperatures

Place Temperature

Stations

Nearby Weather Stations

Station Location Temp. Windchill Dew Point Humidity Wind Precip. Elev Updated Type
                   

Watches & Warnings

There are currently no watches in effect.